sensor_id;sensor_type;location;lat;lon;timestamp;pressure;altitude;pressure_sealevel;temperature;humidity
69955;BME280;57279;55.912;37.490;2023-04-25T00:01:11;99089.28;;;11.68;44.61
69955;BME280;57279;55.912;37.490;2023-04-25T00:03:38;99088.72;;;11.66;44.63
69955;BME280;57279;55.912;37.490;2023-04-25T00:06:06;99083.88;;;11.58;44.57
69955;BME280;57279;55.912;37.490;2023-04-25T00:08:32;99077.16;;;11.50;44.66
69955;BME280;57279;55.912;37.490;2023-04-25T00:10:58;99086.84;;;11.46;44.61
69955;BME280;57279;55.912;37.490;2023-04-25T00:13:25;99081.47;;;11.41;44.87
69955;BME280;57279;55.912;37.490;2023-04-25T00:15:51;99084.97;;;11.36;45.31
69955;BME280;57279;55.912;37.490;2023-04-25T00:18:19;99087.13;;;11.29;45.22
69955;BME280;57279;55.912;37.490;2023-04-25T00:20:45;99089.84;;;11.29;45.44
69955;BME280;57279;55.912;37.490;2023-04-25T00:23:16;99086.34;;;11.28;45.21
69955;BME280;57279;55.912;37.490;2023-04-25T00:25:44;99082.03;;;11.27;45.87
69955;BME280;57279;55.912;37.490;2023-04-25T00:28:11;99083.09;;;11.26;46.00
69955;BME280;57279;55.912;37.490;2023-04-25T00:30:37;99084.44;;;11.24;46.15
69955;BME280;57279;55.912;37.490;2023-04-25T00:33:03;99090.94;;;11.23;45.93
69955;BME280;57279;55.912;37.490;2023-04-25T00:35:28;99097.97;;;11.19;45.52
69955;BME280;57279;55.912;37.490;2023-04-25T00:37:54;99088.25;;;11.18;45.90
69955;BME280;57279;55.912;37.490;2023-04-25T00:40:20;99096.59;;;11.21;45.32
69955;BME280;57279;55.912;37.490;2023-04-25T00:42:47;99098.50;;;11.26;45.13
69955;BME280;57279;55.912;37.490;2023-04-25T00:45:14;99087.44;;;11.27;45.21
69955;BME280;57279;55.912;37.490;2023-04-25T00:47:43;99096.34;;;11.33;45.25
69955;BME280;57279;55.912;37.490;2023-04-25T00:50:09;99100.13;;;11.32;45.61
69955;BME280;57279;55.912;37.490;2023-04-25T00:52:37;99102.56;;;11.33;45.56
69955;BME280;57279;55.912;37.490;2023-04-25T00:55:04;99103.09;;;11.35;45.42
69955;BME280;57279;55.912;37.490;2023-04-25T00:57:30;99105.78;;;11.35;45.67
69955;BME280;57279;55.912;37.490;2023-04-25T00:59:56;99109.31;;;11.36;45.92
69955;BME280;57279;55.912;37.490;2023-04-25T01:02:21;99105.53;;;11.37;45.84
69955;BME280;57279;55.912;37.490;2023-04-25T01:04:48;99106.34;;;11.38;46.29
69955;BME280;57279;55.912;37.490;2023-04-25T01:07:14;99110.38;;;11.40;45.96
69955;BME280;57279;55.912;37.490;2023-04-25T01:09:40;99110.38;;;11.45;46.30
69955;BME280;57279;55.912;37.490;2023-04-25T01:12:07;99100.09;;;11.47;46.26
69955;BME280;57279;55.912;37.490;2023-04-25T01:14:33;99102.81;;;11.47;46.48
69955;BME280;57279;55.912;37.490;2023-04-25T01:16:59;99097.69;;;11.51;46.54
69955;BME280;57279;55.912;37.490;2023-04-25T01:19:25;99095.78;;;11.51;46.57
69955;BME280;57279;55.912;37.490;2023-04-25T01:21:51;99087.66;;;11.57;46.43
69955;BME280;57279;55.912;37.490;2023-04-25T01:24:17;99087.13;;;11.60;46.41
69955;BME280;57279;55.912;37.490;2023-04-25T01:26:43;99082.00;;;11.63;46.36
69955;BME280;57279;55.912;37.490;2023-04-25T01:29:17;99072.78;;;11.69;46.20
69955;BME280;57279;55.912;37.490;2023-04-25T01:31:44;99072.75;;;11.74;45.79
69955;BME280;57279;55.912;37.490;2023-04-25T01:34:11;99071.41;;;11.82;45.95
69955;BME280;57279;55.912;37.490;2023-04-25T01:36:37;99072.47;;;11.86;45.93
69955;BME280;57279;55.912;37.490;2023-04-25T01:39:03;99070.06;;;11.90;45.91
69955;BME280;57279;55.912;37.490;2023-04-25T01:41:29;99077.59;;;11.93;46.30
69955;BME280;57279;55.912;37.490;2023-04-25T01:43:55;99077.59;;;11.93;46.56
69955;BME280;57279;55.912;37.490;2023-04-25T01:46:21;99085.72;;;11.93;46.95
69955;BME280;57279;55.912;37.490;2023-04-25T01:48:47;99088.16;;;11.89;46.26
69955;BME280;57279;55.912;37.490;2023-04-25T01:51:13;99082.47;;;11.91;46.56
69955;BME280;57279;55.912;37.490;2023-04-25T01:53:39;99078.13;;;11.95;46.61
69955;BME280;57279;55.912;37.490;2023-04-25T01:56:05;99075.97;;;11.97;46.44
69955;BME280;57279;55.912;37.490;2023-04-25T01:58:33;99087.31;;;11.99;46.46
69955;BME280;57279;55.912;37.490;2023-04-25T02:01:04;99080.81;;;12.00;46.67
69955;BME280;57279;55.912;37.490;2023-04-25T02:03:38;99082.19;;;11.98;47.54
69955;BME280;57279;55.912;37.490;2023-04-25T02:06:07;99075.16;;;11.97;47.55
69955;BME280;57279;55.912;37.490;2023-04-25T02:08:37;99083.81;;;11.93;46.98
69955;BME280;57279;55.912;37.490;2023-04-25T02:11:03;99082.75;;;11.95;47.63
69955;BME280;57279;55.912;37.490;2023-04-25T02:13:36;99095.47;;;11.94;47.32
69955;BME280;57279;55.912;37.490;2023-04-25T02:16:10;99088.41;;;11.93;47.28
69955;BME280;57279;55.912;37.490;2023-04-25T02:18:37;99084.91;;;11.92;48.49
69955;BME280;57279;55.912;37.490;2023-04-25T02:21:05;99086.53;;;11.88;48.75
69955;BME280;57279;55.912;37.490;2023-04-25T02:23:31;99081.91;;;11.84;49.04
69955;BME280;57279;55.912;37.490;2023-04-25T02:25:59;99081.13;;;11.83;49.53
69955;BME280;57279;55.912;37.490;2023-04-25T02:28:24;99081.13;;;11.83;48.73
69955;BME280;57279;55.912;37.490;2023-04-25T02:30:52;99082.75;;;11.84;48.49
69955;BME280;57279;55.912;37.490;2023-04-25T02:33:17;99079.47;;;11.87;48.31
69955;BME280;57279;55.912;37.490;2023-04-25T02:35:43;99077.03;;;11.86;48.29
69955;BME280;57279;55.912;37.490;2023-04-25T02:38:09;99080.03;;;11.89;48.80
69955;BME280;57279;55.912;37.490;2023-04-25T02:40:34;99077.88;;;11.86;48.45
69955;BME280;57279;55.912;37.490;2023-04-25T02:43:00;99077.34;;;11.89;48.19
69955;BME280;57279;55.912;37.490;2023-04-25T02:45:25;99074.63;;;11.89;48.14
69955;BME280;57279;55.912;37.490;2023-04-25T02:47:51;99081.94;;;11.94;48.60
69955;BME280;57279;55.912;37.490;2023-04-25T02:50:18;99074.09;;;11.92;48.35
69955;BME280;57279;55.912;37.490;2023-04-25T02:52:44;99079.22;;;11.94;49.14
69955;BME280;57279;55.912;37.490;2023-04-25T02:55:14;99069.75;;;11.97;50.24
69955;BME280;57279;55.912;37.490;2023-04-25T02:57:41;99052.72;;;11.96;49.09
69955;BME280;57279;55.912;37.490;2023-04-25T03:00:10;99057.00;;;11.97;49.44
69955;BME280;57279;55.912;37.490;2023-04-25T03:02:37;99058.66;;;11.98;49.59
69955;BME280;57279;55.912;37.490;2023-04-25T03:05:03;99065.91;;;12.08;50.88
69955;BME280;57279;55.912;37.490;2023-04-25T03:07:29;99066.97;;;12.12;53.17
69955;BME280;57279;55.912;37.490;2023-04-25T03:09:54;99080.25;;;12.13;53.27
69955;BME280;57279;55.912;37.490;2023-04-25T03:12:22;99077.53;;;12.19;52.77
69955;BME280;57279;55.912;37.490;2023-04-25T03:14:48;99075.06;;;12.22;53.16
69955;BME280;57279;55.912;37.490;2023-04-25T03:17:14;99070.16;;;12.29;52.71
69955;BME280;57279;55.912;37.490;2023-04-25T03:19:40;99069.84;;;12.36;51.35
69955;BME280;57279;55.912;37.490;2023-04-25T03:22:06;99080.63;;;12.41;51.41
69955;BME280;57279;55.912;37.490;2023-04-25T03:24:31;99084.13;;;12.47;50.30
69955;BME280;57279;55.912;37.490;2023-04-25T03:26:57;99086.81;;;12.52;50.32
69955;BME280;57279;55.912;37.490;2023-04-25T03:29:23;99084.63;;;12.54;49.87
69955;BME280;57279;55.912;37.490;2023-04-25T03:31:52;99091.69;;;12.55;48.38
69955;BME280;57279;55.912;37.490;2023-04-25T03:34:19;99084.63;;;12.54;48.04
69955;BME280;57279;55.912;37.490;2023-04-25T03:36:45;99080.28;;;12.58;48.21
69955;BME280;57279;55.912;37.490;2023-04-25T03:39:11;99088.94;;;12.60;47.62
69955;BME280;57279;55.912;37.490;2023-04-25T03:41:39;99084.88;;;12.63;47.58
69955;BME280;57279;55.912;37.490;2023-04-25T03:44:10;99087.25;;;12.69;47.26
69955;BME280;57279;55.912;37.490;2023-04-25T03:46:36;99083.16;;;12.77;47.22
69955;BME280;57279;55.912;37.490;2023-04-25T03:49:01;99076.38;;;12.80;47.47
69955;BME280;57279;55.912;37.490;2023-04-25T03:51:44;99080.13;;;12.84;47.24
69955;BME280;57279;55.912;37.490;2023-04-25T03:54:09;99071.44;;;12.87;46.87
69955;BME280;57279;55.912;37.490;2023-04-25T03:56:53;99079.81;;;12.90;47.15
69955;BME280;57279;55.912;37.490;2023-04-25T03:59:22;99072.75;;;12.95;47.89
69955;BME280;57279;55.912;37.490;2023-04-25T04:01:48;99076.78;;;12.97;48.00
69955;BME280;57279;55.912;37.490;2023-04-25T04:04:13;99071.38;;;12.97;48.38
69955;BME280;57279;55.912;37.490;2023-04-25T04:06:39;99078.97;;;12.95;48.55
69955;BME280;57279;55.912;37.490;2023-04-25T04:09:23;99077.84;;;13.01;48.35
69955;BME280;57279;55.912;37.490;2023-04-25T04:11:48;99078.59;;;13.12;49.05
69955;BME280;57279;55.912;37.490;2023-04-25T04:14:14;99070.38;;;13.17;47.81
69955;BME280;57279;55.912;37.490;2023-04-25T04:16:45;99080.63;;;13.25;48.32
69955;BME280;57279;55.912;37.490;2023-04-25T04:19:10;99074.38;;;13.30;47.99
69955;BME280;57279;55.912;37.490;2023-04-25T04:21:39;99076.47;;;13.38;46.94
69955;BME280;57279;55.912;37.490;2023-04-25T04:24:05;99072.06;;;13.47;47.31
69955;BME280;57279;55.912;37.490;2023-04-25T04:26:41;99063.31;;;13.56;46.56
69955;BME280;57279;55.912;37.490;2023-04-25T04:29:28;99068.91;;;13.64;46.56
69955;BME280;57279;55.912;37.490;2023-04-25T04:32:02;99070.69;;;13.74;46.03
69955;BME280;57279;55.912;37.490;2023-04-25T04:34:29;99071.97;;;13.82;46.58
69955;BME280;57279;55.912;37.490;2023-04-25T04:36:57;99074.63;;;13.87;46.21
69955;BME280;57279;55.912;37.490;2023-04-25T04:39:23;99066.72;;;13.91;45.90
69955;BME280;57279;55.912;37.490;2023-04-25T04:42:10;99063.78;;;13.87;44.75
69955;BME280;57279;55.912;37.490;2023-04-25T04:45:04;99070.88;;;13.83;44.78
69955;BME280;57279;55.912;37.490;2023-04-25T04:47:44;99069.34;;;13.77;44.81
69955;BME280;57279;55.912;37.490;2023-04-25T04:50:29;99069.38;;;13.72;44.83
69955;BME280;57279;55.912;37.490;2023-04-25T04:53:16;99063.16;;;13.71;44.56
69955;BME280;57279;55.912;37.490;2023-04-25T04:55:57;99062.03;;;13.72;44.27
69955;BME280;57279;55.912;37.490;2023-04-25T04:58:46;99069.13;;;13.68;45.41
69955;BME280;57279;55.912;37.490;2023-04-25T05:01:33;99064.00;;;13.66;46.26
69955;BME280;57279;55.912;37.490;2023-04-25T05:04:27;99064.28;;;13.65;46.58
69955;BME280;57279;55.912;37.490;2023-04-25T05:07:25;99062.69;;;13.64;46.69
69955;BME280;57279;55.912;37.490;2023-04-25T05:10:04;99071.63;;;13.64;47.04
69955;BME280;57279;55.912;37.490;2023-04-25T05:12:58;99072.38;;;13.70;47.60
69955;BME280;57279;55.912;37.490;2023-04-25T05:15:42;99064.16;;;13.80;48.03
69955;BME280;57279;55.912;37.490;2023-04-25T05:18:26;99064.81;;;13.91;47.16
69955;BME280;57279;55.912;37.490;2023-04-25T05:21:03;99063.31;;;14.04;46.96
69955;BME280;57279;55.912;37.490;2023-04-25T05:23:44;99070.25;;;14.15;46.62
69955;BME280;57279;55.912;37.490;2023-04-25T05:26:28;99060.13;;;14.21;46.20
69955;BME280;57279;55.912;37.490;2023-04-25T05:29:19;99062.47;;;14.27;45.76
69955;BME280;57279;55.912;37.490;2023-04-25T05:31:59;99070.56;;;14.33;46.67
69955;BME280;57279;55.912;37.490;2023-04-25T05:34:26;99061.84;;;14.36;45.13
69955;BME280;57279;55.912;37.490;2023-04-25T05:36:58;99074.25;;;14.42;44.74
69955;BME280;57279;55.912;37.490;2023-04-25T05:39:24;99064.41;;;14.46;44.51
69955;BME280;57279;55.912;37.490;2023-04-25T05:42:05;99068.38;;;14.54;44.53
69955;BME280;57279;55.912;37.490;2023-04-25T05:44:42;99070.16;;;14.63;44.85
69955;BME280;57279;55.912;37.490;2023-04-25T05:47:20;99072.75;;;14.74;44.58
69955;BME280;57279;55.912;37.490;2023-04-25T05:50:02;99066.88;;;14.85;43.30
69955;BME280;57279;55.912;37.490;2023-04-25T05:52:50;99056.13;;;14.94;42.89
69955;BME280;57279;55.912;37.490;2023-04-25T05:55:35;99064.50;;;14.98;42.62
69955;BME280;57279;55.912;37.490;2023-04-25T05:58:12;99057.34;;;15.02;42.04
69955;BME280;57279;55.912;37.490;2023-04-25T06:00:39;99058.31;;;15.11;41.80
69955;BME280;57279;55.912;37.490;2023-04-25T06:03:07;99063.25;;;15.23;41.83
69955;BME280;57279;55.912;37.490;2023-04-25T06:05:35;99050.00;;;15.35;41.73
69955;BME280;57279;55.912;37.490;2023-04-25T06:08:01;99055.59;;;15.44;42.33
69955;BME280;57279;55.912;37.490;2023-04-25T06:10:27;99047.03;;;15.51;42.04
69955;BME280;57279;55.912;37.490;2023-04-25T06:12:52;99050.16;;;15.58;41.74
69955;BME280;57279;55.912;37.490;2023-04-25T06:15:20;99047.84;;;15.65;41.19
69955;BME280;57279;55.912;37.490;2023-04-25T06:17:46;99040.41;;;15.71;41.50
69955;BME280;57279;55.912;37.490;2023-04-25T06:20:11;99041.44;;;15.75;40.86
69955;BME280;57279;55.912;37.490;2023-04-25T06:22:39;99036.72;;;15.80;40.63
69955;BME280;57279;55.912;37.490;2023-04-25T06:25:05;99032.78;;;15.87;40.41
69955;BME280;57279;55.912;37.490;2023-04-25T06:27:34;99035.69;;;15.90;39.91
69955;BME280;57279;55.912;37.490;2023-04-25T06:30:01;99035.28;;;15.97;39.58
69955;BME280;57279;55.912;37.490;2023-04-25T06:32:28;99030.84;;;16.01;39.60
69955;BME280;57279;55.912;37.490;2023-04-25T06:34:57;99033.47;;;16.06;39.36
69955;BME280;57279;55.912;37.490;2023-04-25T06:37:23;99027.13;;;16.11;39.33
69955;BME280;57279;55.912;37.490;2023-04-25T06:39:50;99024.56;;;16.14;38.17
69955;BME280;57279;55.912;37.490;2023-04-25T06:42:16;99023.88;;;16.22;38.66
69955;BME280;57279;55.912;37.490;2023-04-25T06:44:50;99022.44;;;16.25;38.27
69955;BME280;57279;55.912;37.490;2023-04-25T06:47:17;99018.81;;;16.30;38.34
69955;BME280;57279;55.912;37.490;2023-04-25T06:49:43;99015.47;;;16.33;38.43
69955;BME280;57279;55.912;37.490;2023-04-25T06:52:09;99025.63;;;16.41;38.31
69955;BME280;57279;55.912;37.490;2023-04-25T06:54:36;99028.25;;;16.46;38.39
69955;BME280;57279;55.912;37.490;2023-04-25T06:57:37;99017.53;;;16.50;37.86
69955;BME280;57279;55.912;37.490;2023-04-25T07:00:22;99016.09;;;16.52;38.07
69955;BME280;57279;55.912;37.490;2023-04-25T07:02:48;99018.22;;;16.55;37.75
69955;BME280;57279;55.912;37.490;2023-04-25T07:05:14;99012.47;;;16.57;37.31
69955;BME280;57279;55.912;37.490;2023-04-25T07:07:40;99017.97;;;16.66;37.46
69955;BME280;57279;55.912;37.490;2023-04-25T07:10:06;99024.63;;;16.73;36.95
69955;BME280;57279;55.912;37.490;2023-04-25T07:12:31;99025.63;;;16.77;37.00
69955;BME280;57279;55.912;37.490;2023-04-25T07:14:57;99026.03;;;16.85;36.87
69955;BME280;57279;55.912;37.490;2023-04-25T07:17:23;99019.34;;;16.91;36.70
69955;BME280;57279;55.912;37.490;2023-04-25T07:19:48;99019.03;;;16.92;35.35
69955;BME280;57279;55.912;37.490;2023-04-25T07:22:16;99016.97;;;16.98;35.78
69955;BME280;57279;55.912;37.490;2023-04-25T07:24:41;99025.84;;;17.04;36.16
69955;BME280;57279;55.912;37.490;2023-04-25T07:27:09;99015.59;;;17.09;35.16
69955;BME280;57279;55.912;37.490;2023-04-25T07:29:55;99013.69;;;17.10;35.29
69955;BME280;57279;55.912;37.490;2023-04-25T07:32:22;99017.09;;;17.15;34.50
69955;BME280;57279;55.912;37.490;2023-04-25T07:34:48;99008.47;;;17.22;34.90
69955;BME280;57279;55.912;37.490;2023-04-25T07:37:14;99011.69;;;17.24;34.86
69955;BME280;57279;55.912;37.490;2023-04-25T07:39:54;99015.69;;;17.27;35.65
69955;BME280;57279;55.912;37.490;2023-04-25T07:42:20;99010.44;;;17.30;34.88
69955;BME280;57279;55.912;37.490;2023-04-25T07:44:47;99011.56;;;17.29;34.63
69955;BME280;57279;55.912;37.490;2023-04-25T07:47:14;99011.56;;;17.29;34.22
69955;BME280;57279;55.912;37.490;2023-04-25T07:49:40;99011.44;;;17.34;34.02
69955;BME280;57279;55.912;37.490;2023-04-25T07:52:06;99011.28;;;17.39;34.06
69955;BME280;57279;55.912;37.490;2023-04-25T07:54:33;99012.75;;;17.46;34.25
69955;BME280;57279;55.912;37.490;2023-04-25T07:57:05;99008.59;;;17.48;34.81
69955;BME280;57279;55.912;37.490;2023-04-25T07:59:34;99007.16;;;17.51;34.94
69955;BME280;57279;55.912;37.490;2023-04-25T08:02:02;99014.09;;;17.57;34.16
69955;BME280;57279;55.912;37.490;2023-04-25T08:04:28;99017.94;;;17.56;35.24
69955;BME280;57279;55.912;37.490;2023-04-25T08:06:59;99014.28;;;17.61;35.16
69955;BME280;57279;55.912;37.490;2023-04-25T08:09:28;99010.91;;;17.64;35.14
69955;BME280;57279;55.912;37.490;2023-04-25T08:11:55;99011.09;;;17.67;34.58
69955;BME280;57279;55.912;37.490;2023-04-25T08:14:26;99014.19;;;17.74;34.62
69955;BME280;57279;55.912;37.490;2023-04-25T08:16:52;99003.16;;;17.88;34.52
69955;BME280;57279;55.912;37.490;2023-04-25T08:19:18;99012.84;;;18.03;34.53
69955;BME280;57279;55.912;37.490;2023-04-25T08:21:45;99003.72;;;18.16;34.51
69955;BME280;57279;55.912;37.490;2023-04-25T08:24:15;98999.22;;;18.21;34.00
69955;BME280;57279;55.912;37.490;2023-04-25T08:26:40;99005.34;;;18.26;34.06
69955;BME280;57279;55.912;37.490;2023-04-25T08:29:08;99006.13;;;18.27;33.87
69955;BME280;57279;55.912;37.490;2023-04-25T08:31:37;99002.59;;;18.35;34.23
69955;BME280;57279;55.912;37.490;2023-04-25T08:34:03;99002.75;;;18.39;33.30
69955;BME280;57279;55.912;37.490;2023-04-25T08:36:55;98992.97;;;18.38;33.10
69955;BME280;57279;55.912;37.490;2023-04-25T08:39:37;99001.63;;;18.31;33.23
69955;BME280;57279;55.912;37.490;2023-04-25T08:42:23;98996.19;;;18.22;33.59
69955;BME280;57279;55.912;37.490;2023-04-25T08:44:50;99001.31;;;18.15;34.27
69955;BME280;57279;55.912;37.490;2023-04-25T08:47:21;98995.03;;;18.14;33.35
69955;BME280;57279;55.912;37.490;2023-04-25T08:49:53;98996.94;;;18.14;33.50
69955;BME280;57279;55.912;37.490;2023-04-25T08:52:23;98998.06;;;18.04;33.47
69955;BME280;57279;55.912;37.490;2023-04-25T08:54:54;98993.56;;;18.00;33.73
69955;BME280;57279;55.912;37.490;2023-04-25T08:57:21;98992.59;;;17.95;34.15
69955;BME280;57279;55.912;37.490;2023-04-25T08:59:48;98988.75;;;18.05;33.57
69955;BME280;57279;55.912;37.490;2023-04-25T09:02:15;98986.34;;;18.21;34.06
69955;BME280;57279;55.912;37.490;2023-04-25T09:04:45;98984.63;;;18.34;34.57
69955;BME280;57279;55.912;37.490;2023-04-25T09:07:11;98982.03;;;18.46;34.19
69955;BME280;57279;55.912;37.490;2023-04-25T09:09:37;98984.94;;;18.59;34.01
69955;BME280;57279;55.912;37.490;2023-04-25T09:12:03;98982.19;;;18.67;34.29
69955;BME280;57279;55.912;37.490;2023-04-25T09:14:30;98983.00;;;18.76;33.73
69955;BME280;57279;55.912;37.490;2023-04-25T09:17:04;98968.88;;;18.83;34.25
69955;BME280;57279;55.912;37.490;2023-04-25T09:19:46;98969.00;;;18.78;33.72
69955;BME280;57279;55.912;37.490;2023-04-25T09:22:25;98964.81;;;18.81;34.59
69955;BME280;57279;55.912;37.490;2023-04-25T09:24:52;98970.63;;;18.79;34.24
69955;BME280;57279;55.912;37.490;2023-04-25T09:27:22;98964.81;;;18.72;34.93
69955;BME280;57279;55.912;37.490;2023-04-25T09:29:59;98961.94;;;18.60;34.80
69955;BME280;57279;55.912;37.490;2023-04-25T09:32:37;98953.44;;;18.52;35.21
69955;BME280;57279;55.912;37.490;2023-04-25T09:35:04;98959.69;;;18.44;35.26
69955;BME280;57279;55.912;37.490;2023-04-25T09:37:30;98961.78;;;18.47;35.48
69955;BME280;57279;55.912;37.490;2023-04-25T09:40:14;98958.75;;;18.49;34.57
69955;BME280;57279;55.912;37.490;2023-04-25T09:42:57;98948.75;;;18.44;34.95
69955;BME280;57279;55.912;37.490;2023-04-25T09:45:25;98949.72;;;18.40;34.93
69955;BME280;57279;55.912;37.490;2023-04-25T09:47:55;98950.53;;;18.40;34.92
69955;BME280;57279;55.912;37.490;2023-04-25T09:50:24;98945.06;;;18.40;34.79
69955;BME280;57279;55.912;37.490;2023-04-25T09:53:02;98949.41;;;18.41;34.73
69955;BME280;57279;55.912;37.490;2023-04-25T09:55:28;98945.53;;;18.42;33.84
69955;BME280;57279;55.912;37.490;2023-04-25T09:58:01;98947.97;;;18.52;34.56
69955;BME280;57279;55.912;37.490;2023-04-25T10:00:29;98949.09;;;18.60;35.44
69955;BME280;57279;55.912;37.490;2023-04-25T10:03:02;98943.91;;;18.67;36.41
69955;BME280;57279;55.912;37.490;2023-04-25T10:05:53;98940.69;;;18.83;35.55
69955;BME280;57279;55.912;37.490;2023-04-25T10:08:20;98934.09;;;18.92;34.32
69955;BME280;57279;55.912;37.490;2023-04-25T10:10:48;98936.84;;;18.92;33.23
69955;BME280;57279;55.912;37.490;2023-04-25T10:13:16;98936.69;;;18.80;33.33
69955;BME280;57279;55.912;37.490;2023-04-25T10:15:42;98934.91;;;18.75;33.65
69955;BME280;57279;55.912;37.490;2023-04-25T10:18:08;98924.75;;;18.76;34.18
69955;BME280;57279;55.912;37.490;2023-04-25T10:20:34;98931.50;;;18.79;34.74
69955;BME280;57279;55.912;37.490;2023-04-25T10:23:08;98919.94;;;18.73;34.93
69955;BME280;57279;55.912;37.490;2023-04-25T10:25:37;98923.16;;;18.75;34.79
69955;BME280;57279;55.912;37.490;2023-04-25T10:28:03;98916.41;;;18.72;34.23
69955;BME280;57279;55.912;37.490;2023-04-25T10:30:29;98916.44;;;18.81;34.32
69955;BME280;57279;55.912;37.490;2023-04-25T10:32:55;98900.81;;;18.82;34.29
69955;BME280;57279;55.912;37.490;2023-04-25T10:35:26;98910.91;;;18.90;34.00
69955;BME280;57279;55.912;37.490;2023-04-25T10:40:25;98902.97;;;19.14;33.91
69955;BME280;57279;55.912;37.490;2023-04-25T10:42:54;98907.59;;;19.23;33.62
69955;BME280;57279;55.912;37.490;2023-04-25T10:45:21;98904.81;;;19.31;33.37
69955;BME280;57279;55.912;37.490;2023-04-25T10:47:47;98900.28;;;19.36;34.42
69955;BME280;57279;55.912;37.490;2023-04-25T10:50:17;98904.19;;;19.34;33.29
69955;BME280;57279;55.912;37.490;2023-04-25T10:52:42;98897.59;;;19.27;32.73
69955;BME280;57279;55.912;37.490;2023-04-25T10:55:10;98893.09;;;19.22;32.47
69955;BME280;57279;55.912;37.490;2023-04-25T10:57:44;98891.78;;;19.28;32.16
69955;BME280;57279;55.912;37.490;2023-04-25T11:02:42;98884.81;;;19.40;32.01
69955;BME280;57279;55.912;37.490;2023-04-25T11:05:36;98881.88;;;19.45;32.13
69955;BME280;57279;55.912;37.490;2023-04-25T11:08:10;98877.03;;;19.50;31.64
69955;BME280;57279;55.912;37.490;2023-04-25T11:10:36;98868.50;;;19.52;31.81
69955;BME280;57279;55.912;37.490;2023-04-25T11:13:03;98869.25;;;19.61;31.99
69955;BME280;57279;55.912;37.490;2023-04-25T11:15:28;98855.66;;;19.73;32.19
69955;BME280;57279;55.912;37.490;2023-04-25T11:17:55;98863.38;;;19.71;31.80
69955;BME280;57279;55.912;37.490;2023-04-25T11:20:22;98865.47;;;19.75;31.66
69955;BME280;57279;55.912;37.490;2023-04-25T11:22:51;98860.94;;;19.79;31.30
69955;BME280;57279;55.912;37.490;2023-04-25T11:25:16;98851.56;;;19.80;31.29
69955;BME280;57279;55.912;37.490;2023-04-25T11:27:53;98842.69;;;19.83;31.33
69955;BME280;57279;55.912;37.490;2023-04-25T11:30:19;98844.31;;;19.84;31.66
69955;BME280;57279;55.912;37.490;2023-04-25T11:32:46;98841.91;;;19.82;31.06
69955;BME280;57279;55.912;37.490;2023-04-25T11:35:12;98843.16;;;19.85;31.27
69955;BME280;57279;55.912;37.490;2023-04-25T11:37:39;98844.66;;;19.82;31.51
69955;BME280;57279;55.912;37.490;2023-04-25T11:40:06;98837.34;;;19.86;30.70
69955;BME280;57279;55.912;37.490;2023-04-25T11:42:32;98839.97;;;19.83;31.43
69955;BME280;57279;55.912;37.490;2023-04-25T11:44:59;98836.09;;;19.84;31.75
69955;BME280;57279;55.912;37.490;2023-04-25T11:47:32;98830.34;;;19.77;31.13
69955;BME280;57279;55.912;37.490;2023-04-25T11:50:05;98829.06;;;19.74;31.55
69955;BME280;57279;55.912;37.490;2023-04-25T11:52:45;98825.53;;;19.73;31.41
69955;BME280;57279;55.912;37.490;2023-04-25T11:55:19;98822.28;;;19.71;31.10
69955;BME280;57279;55.912;37.490;2023-04-25T11:57:48;98816.97;;;19.75;30.40
69955;BME280;57279;55.912;37.490;2023-04-25T12:00:20;98800.53;;;19.75;30.46
69955;BME280;57279;55.912;37.490;2023-04-25T12:02:51;98809.81;;;19.83;30.67
69955;BME280;57279;55.912;37.490;2023-04-25T12:05:17;98811.34;;;19.92;31.05
69955;BME280;57279;55.912;37.490;2023-04-25T12:07:42;98796.78;;;20.01;30.89
69955;BME280;57279;55.912;37.490;2023-04-25T12:10:10;98793.63;;;20.11;31.02
69955;BME280;57279;55.912;37.490;2023-04-25T12:12:37;98792.41;;;20.21;30.88
69955;BME280;57279;55.912;37.490;2023-04-25T12:15:17;98781.25;;;20.26;30.84
69955;BME280;57279;55.912;37.490;2023-04-25T12:17:47;98789.66;;;20.21;30.49
69955;BME280;57279;55.912;37.490;2023-04-25T12:20:15;98782.69;;;20.23;31.15
69955;BME280;57279;55.912;37.490;2023-04-25T12:22:42;98780.28;;;20.22;30.58
69955;BME280;57279;55.912;37.490;2023-04-25T12:25:13;98775.63;;;20.22;30.10
69955;BME280;57279;55.912;37.490;2023-04-25T12:27:39;98775.28;;;20.24;30.29
69955;BME280;57279;55.912;37.490;2023-04-25T12:30:08;98763.84;;;20.22;30.66
69955;BME280;57279;55.912;37.490;2023-04-25T12:32:34;98767.63;;;20.29;30.64
69955;BME280;57279;55.912;37.490;2023-04-25T12:34:59;98762.25;;;20.21;29.71
69955;BME280;57279;55.912;37.490;2023-04-25T12:37:25;98758.63;;;20.29;29.95
69955;BME280;57279;55.912;37.490;2023-04-25T12:39:50;98753.06;;;20.38;30.32
69955;BME280;57279;55.912;37.490;2023-04-25T12:42:16;98761.41;;;20.41;30.05
69955;BME280;57279;55.912;37.490;2023-04-25T12:44:42;98755.69;;;20.46;29.92
69955;BME280;57279;55.912;37.490;2023-04-25T12:47:07;98751.34;;;20.45;29.98
69955;BME280;57279;55.912;37.490;2023-04-25T12:49:33;98746.22;;;20.56;29.85
69955;BME280;57279;55.912;37.490;2023-04-25T12:51:59;98749.66;;;20.53;29.80
69955;BME280;57279;55.912;37.490;2023-04-25T12:54:25;98735.47;;;20.51;29.51
69955;BME280;57279;55.912;37.490;2023-04-25T12:56:51;98731.47;;;20.48;29.74
69955;BME280;57279;55.912;37.490;2023-04-25T12:59:17;98730.78;;;20.51;29.42
69955;BME280;57279;55.912;37.490;2023-04-25T13:01:43;98723.34;;;20.52;29.92
69955;BME280;57279;55.912;37.490;2023-04-25T13:04:10;98725.06;;;20.44;29.90
69955;BME280;57279;55.912;37.490;2023-04-25T13:06:36;98725.59;;;20.25;29.60
69955;BME280;57279;55.912;37.490;2023-04-25T13:09:02;98720.25;;;20.29;29.80